Time,TemperatureF,DewpointF,PressureIn,WindDirection,WindDirectionDegrees,WindSpeedMPH,WindSpeedGustMPH,Humidity,HourlyPrecipIn,Conditions,Clouds,dailyrainin,SoftwareType,DateUTC
2013-08-23 00:42:00,69.0,39.0,29.77,NE,50,1.0,-999.0,34,0.00,,,-99.99,,2013-08-23 07:42:00,
2013-08-23 00:52:00,69.0,39.0,29.77,NE,50,1.0,-999.0,34,0.00,,,-99.99,,2013-08-23 07:52:00,
2013-08-23 01:42:00,67.0,38.0,29.77,North,0,0.0,-999.0,34,0.00,,,-99.99,,2013-08-23 08:42:00,
2013-08-23 01:52:00,67.0,38.0,29.77,North,0,0.0,-999.0,34,0.00,,,-99.99,,2013-08-23 08:52:00,
2013-08-23 02:43:00,64.0,40.0,29.76,North,0,0.0,-999.0,41,0.00,,,-99.99,,2013-08-23 09:43:00,
2013-08-23 02:53:00,64.0,40.0,29.76,North,0,0.0,-999.0,41,0.00,,,-99.99,,2013-08-23 09:53:00,
2013-08-23 03:42:00,62.0,39.0,29.76,North,0,0.0,-999.0,42,0.00,,,-99.99,,2013-08-23 10:42:00,
2013-08-23 03:52:00,62.0,39.0,29.76,North,0,0.0,-999.0,42,0.00,,,-99.99,,2013-08-23 10:52:00,
2013-08-23 04:42:00,61.0,42.0,29.75,North,0,0.0,-999.0,49,0.00,,,-99.99,,2013-08-23 11:42:00,
2013-08-23 04:52:00,61.0,42.0,29.75,North,0,0.0,-999.0,49,0.00,,,-99.99,,2013-08-23 11:52:00,
2013-08-23 05:42:00,59.0,41.0,29.75,North,0,0.0,-999.0,51,0.00,,,-99.99,,2013-08-23 12:42:00,
2013-08-23 05:52:00,59.0,41.0,29.75,North,0,0.0,-999.0,51,0.00,,,-99.99,,2013-08-23 12:52:00,
2013-08-23 07:54:00,70.0,42.0,29.75,North,0,0.0,-999.0,36,0.00,,,-99.99,,2013-08-23 14:54:00,
2013-08-23 08:43:00,70.0,42.0,29.75,North,0,0.0,-999.0,36,0.00,,,-99.99,,2013-08-23 15:43:00,
2013-08-23 09:42:00,77.0,38.0,29.75,North,0,0.0,-999.0,25,0.00,,,-99.99,,2013-08-23 16:42:00,
2013-08-23 09:53:00,77.0,38.0,29.75,North,0,0.0,-999.0,25,0.00,,,-99.99,,2013-08-23 16:53:00,
2013-08-23 10:23:00,80.0,39.0,29.76,North,0,0.0,-999.0,23,0.00,,,-99.99,,2013-08-23 17:23:00,
2013-08-23 10:34:00,80.0,39.0,29.76,North,0,0.0,-999.0,23,0.00,,,-99.99,,2013-08-23 17:34:00,
2013-08-23 10:43:00,80.0,39.0,29.76,North,0,0.0,-999.0,23,0.00,,,-99.99,,2013-08-23 17:43:00,
2013-08-23 10:53:00,80.0,39.0,29.76,North,0,0.0,-999.0,23,0.00,,,-99.99,,2013-08-23 17:53:00,
2013-08-23 11:42:00,82.0,41.0,29.75,SE,140,4.0,-999.0,23,0.00,,,-99.99,,2013-08-23 18:42:00,
2013-08-23 11:52:00,82.0,41.0,29.75,SE,140,4.0,-999.0,23,0.00,,,-99.99,,2013-08-23 18:52:00,
2013-08-23 12:22:00,83.0,39.0,29.75,SSE,150,1.0,-999.0,21,0.00,,,-99.99,,2013-08-23 19:22:00,
2013-08-23 12:32:00,83.0,39.0,29.75,SSE,150,1.0,-999.0,21,0.00,,,-99.99,,2013-08-23 19:32:00,
2013-08-23 12:42:00,83.0,39.0,29.75,SSE,150,1.0,-999.0,21,0.00,,,-99.99,,2013-08-23 19:42:00,
2013-08-23 12:52:00,83.0,39.0,29.75,SSE,150,1.0,-999.0,21,0.00,,,-99.99,,2013-08-23 19:52:00,
2013-08-23 13:42:00,84.0,39.0,29.74,West,260,4.0,-999.0,20,0.00,,,-99.99,,2013-08-23 20:42:00,
2013-08-23 13:52:00,84.0,39.0,29.74,West,260,4.0,-999.0,20,0.00,,,-99.99,,2013-08-23 20:52:00,
2013-08-23 14:43:00,83.0,38.0,29.73,SW,230,3.0,-999.0,20,0.00,,,-99.99,,2013-08-23 21:43:00,
2013-08-23 14:54:00,83.0,38.0,29.73,SW,230,3.0,-999.0,20,0.00,,,-99.99,,2013-08-23 21:54:00,
2013-08-23 15:43:00,84.0,37.0,29.71,WNW,300,1.0,-999.0,19,0.00,,,-99.99,,2013-08-23 22:43:00,
2013-08-23 15:53:00,84.0,37.0,29.71,WNW,300,1.0,-999.0,19,0.00,,,-99.99,,2013-08-23 22:53:00,
2013-08-23 16:43:00,84.0,34.0,29.69,South,170,3.0,-999.0,17,0.00,,,-99.99,,2013-08-23 23:43:00,
2013-08-23 16:54:00,84.0,34.0,29.69,South,170,3.0,-999.0,17,0.00,,,-99.99,,2013-08-23 23:54:00,
2013-08-23 17:21:00,80.0,42.0,29.67,WSW,240,2.0,-999.0,26,0.00,,,-99.99,,2013-08-24 00:21:00,
2013-08-23 17:32:00,80.0,42.0,29.67,WSW,240,2.0,-999.0,26,0.00,,,-99.99,,2013-08-24 00:32:00,
2013-08-23 17:43:00,80.0,42.0,29.67,WSW,240,2.0,-999.0,26,0.00,,,-99.99,,2013-08-24 00:43:00,
2013-08-23 17:53:00,80.0,42.0,29.67,WSW,240,2.0,-999.0,26,0.00,,,-99.99,,2013-08-24 00:53:00,
2013-08-23 18:42:00,77.0,41.0,29.67,WSW,240,6.0,-999.0,28,0.00,,,-99.99,,2013-08-24 01:42:00,
2013-08-23 18:53:00,77.0,41.0,29.67,WSW,240,6.0,-999.0,28,0.00,,,-99.99,,2013-08-24 01:53:00,
2013-08-23 19:42:00,74.0,41.0,29.66,East,90,2.0,-999.0,31,0.00,,,-99.99,,2013-08-24 02:42:00,
2013-08-23 19:52:00,74.0,41.0,29.66,East,90,2.0,-999.0,31,0.00,,,-99.99,,2013-08-24 02:52:00,
2013-08-23 20:44:00,71.0,41.0,29.68,North,0,0.0,-999.0,34,0.00,,,-99.99,,2013-08-24 03:44:00,
2013-08-23 20:54:00,71.0,41.0,29.68,North,0,0.0,-999.0,34,0.00,,,-99.99,,2013-08-24 03:54:00,
2013-08-23 21:44:00,68.0,41.0,29.69,North,0,0.0,-999.0,38,0.00,,,-99.99,,2013-08-24 04:44:00,
2013-08-23 21:53:00,68.0,41.0,29.69,North,0,0.0,-999.0,38,0.00,,,-99.99,,2013-08-24 04:53:00,
2013-08-23 22:43:00,68.0,37.0,29.70,North,0,0.0,-999.0,32,0.00,,,-99.99,,2013-08-24 05:43:00,
2013-08-23 22:53:00,68.0,37.0,29.70,North,0,0.0,-999.0,32,0.00,,,-99.99,,2013-08-24 05:53:00,
2013-08-23 23:42:00,67.0,33.0,29.70,WSW,240,2.0,-999.0,28,0.00,,,-99.99,,2013-08-24 06:42:00,
2013-08-23 23:52:00,67.0,33.0,29.70,WSW,240,2.0,-999.0,28,0.00,,,-99.99,,2013-08-24 06:52:00,